Time;durP1;ratioP1;P1;durP2;ratioP2;P2;SDS_P1;SDS_P2;PMS_P1;PMS_P2;Temp;Humidity;BMP_temperature;BMP_pressure;BME280_temperature;BME280_humidity;BME280_pressure;Samples;Min_cycle;Max_cycle;Signal;HPM_P1;HPM_P2
2022/05/14 00:00:46;;;;;;;40.60;8.38;;;12.90;89.20;;;;;;6160232;23;20013;-72
2022/05/14 00:03:12;;;;;;;44.78;8.63;;;12.80;88.70;;;;;;6159881;23;20024;-74
2022/05/14 00:05:38;;;;;;;44.95;7.85;;;12.80;89.30;;;;;;6111535;23;20024;-73
2022/05/14 00:08:03;;;;;;;40.97;8.90;;;12.80;89.80;;;;;;6135398;23;20044;-72
2022/05/14 00:10:32;;;;;;;35.30;8.50;;;12.80;89.00;;;;;;6135659;23;20024;-74
2022/05/14 00:13:04;;;;;;;43.80;9.45;;;12.70;89.30;;;;;;6159889;23;20017;-72
2022/05/14 00:15:38;;;;;;;57.90;10.02;;;12.70;89.30;;;;;;6135682;23;20024;-72
2022/05/14 00:18:06;;;;;;;47.97;9.32;;;12.60;90.20;;;;;;6135550;23;20017;-73
2022/05/14 00:20:32;;;;;;;56.53;9.05;;;12.50;90.00;;;;;;6159880;23;20013;-72
2022/05/14 00:22:58;;;;;;;39.70;7.75;;;12.60;90.20;;;;;;6135612;23;20368;-73
2022/05/14 00:25:25;;;;;;;43.80;9.27;;;12.50;90.10;;;;;;6135219;23;20048;-74
2022/05/14 00:27:52;;;;;;;53.13;8.60;;;12.50;90.00;;;;;;6186336;23;20020;-74
2022/05/14 00:30:20;;;;;;;51.83;9.48;;;12.50;90.00;;;;;;6160089;23;20439;-72
2022/05/14 00:32:47;;;;;;;41.95;9.60;;;12.40;90.00;;;;;;6159943;23;20020;-74
2022/05/14 00:35:13;;;;;;;48.30;9.13;;;12.50;90.30;;;;;;6134908;23;20111;-73
2022/05/14 00:37:39;;;;;;;52.85;9.88;;;12.50;90.50;;;;;;6135175;23;20439;-74
2022/05/14 00:40:13;;;;;;;53.97;9.80;;;12.50;90.30;;;;;;6135136;23;20017;-74
2022/05/14 00:42:39;;;;;;;41.53;7.88;;;12.50;90.60;;;;;;6160272;23;20025;-73
2022/05/14 00:45:06;;;;;;;;;;;12.50;90.60;;;;;;6160443;23;20013;-72
2022/05/14 00:47:36;;;;;;;42.15;8.75;;;12.50;90.60;;;;;;6159839;23;20308;-73
2022/05/14 00:50:15;;;;;;;51.78;8.93;;;12.50;90.60;;;;;;6159868;23;20017;-74
2022/05/14 00:52:42;;;;;;;46.72;9.95;;;12.50;90.40;;;;;;6159830;23;20013;-73
2022/05/14 00:55:11;;;;;;;40.17;9.25;;;12.50;90.70;;;;;;6159475;23;20029;-73
2022/05/14 00:57:40;;;;;;;47.28;10.43;;;12.50;90.80;;;;;;6135043;23;20023;-72
2022/05/14 01:00:12;;;;;;;39.58;8.85;;;12.40;90.30;;;;;;6159827;23;20009;-74
2022/05/14 01:02:38;;;;;;;50.42;9.75;;;12.40;90.40;;;;;;6159543;23;20017;-72
2022/05/14 01:05:04;;;;;;;48.05;9.27;;;12.40;90.40;;;;;;6186081;23;20104;-72
2022/05/14 01:07:30;;;;;;;;;;;12.30;90.40;;;;;;6160117;23;20075;-72
2022/05/14 01:10:00;;;;;;;45.40;10.05;;;12.20;90.60;;;;;;6135290;23;19922;-72
2022/05/14 01:12:29;;;;;;;45.97;9.73;;;12.20;90.40;;;;;;6159508;23;20024;-74
2022/05/14 01:15:05;;;;;;;44.08;9.38;;;12.10;90.20;;;;;;6135012;23;20444;-73
2022/05/14 01:17:30;;;;;;;44.67;8.63;;;12.10;90.20;;;;;;6186165;23;20379;-73
2022/05/14 01:19:56;;;;;;;41.03;8.00;;;12.10;90.30;;;;;;6135223;23;20017;-72
2022/05/14 01:22:39;;;;;;;37.60;9.10;;;12.00;90.40;;;;;;6159587;23;20635;-74
2022/05/14 01:28:11;;;;;;;43.65;8.27;;;11.90;90.40;;;;;;6159530;23;20067;-74
2022/05/14 01:30:43;;;;;;;;;;;11.80;90.50;;;;;;6160064;23;20436;-73
2022/05/14 01:33:11;;;;;;;52.03;8.88;;;11.80;91.30;;;;;;6159673;23;19916;-72
2022/05/14 01:35:39;;;;;;;50.05;9.52;;;11.80;90.50;;;;;;6159022;23;20514;-73
2022/05/14 01:38:05;;;;;;;48.65;9.63;;;11.70;90.40;;;;;;6134622;23;20139;-73
2022/05/14 01:40:32;;;;;;;52.92;9.75;;;11.70;90.60;;;;;;6134901;23;20451;-74
2022/05/14 01:42:58;;;;;;;;;;;11.70;90.40;;;;;;6159961;23;20017;-73
2022/05/14 01:45:25;;;;;;;36.95;8.15;;;11.60;91.40;;;;;;6159197;23;19994;-74
2022/05/14 01:47:51;;;;;;;42.70;8.88;;;11.50;90.60;;;;;;6159219;23;20489;-73
2022/05/14 01:50:17;;;;;;;44.15;9.15;;;11.60;90.40;;;;;;6134627;23;20071;-73
2022/05/14 01:52:42;;;;;;;44.28;9.15;;;11.50;90.30;;;;;;6159392;23;20340;-74
2022/05/14 01:55:09;;;;;;;50.57;10.53;;;11.50;90.80;;;;;;6159568;23;20017;-72
2022/05/14 01:57:35;;;;;;;48.88;10.13;;;11.40;90.70;;;;;;6134845;23;20018;-74
2022/05/14 02:00:04;;;;;;;40.58;8.88;;;11.40;90.60;;;;;;6134896;23;20017;-74
2022/05/14 02:02:30;;;;;;;49.13;8.80;;;11.40;90.90;;;;;;6134459;23;20025;-74
2022/05/14 02:04:56;;;;;;;46.50;9.15;;;11.40;90.70;;;;;;6159311;23;20396;-72
2022/05/14 02:07:22;;;;;;;48.33;10.23;;;11.30;90.80;;;;;;6159257;23;20024;-72
2022/05/14 02:09:47;;;;;;;47.07;11.07;;;11.30;91.50;;;;;;6159501;23;20013;-74
2022/05/14 02:12:13;;;;;;;41.97;10.40;;;11.30;91.10;;;;;;6159373;23;20745;-74
2022/05/14 02:14:39;;;;;;;48.72;10.98;;;11.30;91.00;;;;;;6159410;23;20025;-74
2022/05/14 02:17:05;;;;;;;55.15;11.68;;;11.30;90.90;;;;;;6159068;23;20021;-73
2022/05/14 02:19:31;;;;;;;44.90;10.70;;;11.20;90.90;;;;;;6134870;23;20021;-72
2022/05/14 02:21:56;;;;;;;53.55;9.57;;;11.40;90.90;;;;;;6159144;23;20023;-73
2022/05/14 02:24:22;;;;;;;53.10;9.90;;;11.20;91.00;;;;;;6134875;23;20013;-73
2022/05/14 02:26:48;;;;;;;44.17;9.32;;;11.20;91.00;;;;;;6159162;23;20298;-72
2022/05/14 02:29:13;;;;;;;55.30;11.40;;;11.20;91.20;;;;;;6134775;23;20025;-73
2022/05/14 02:31:40;;;;;;;51.65;10.30;;;11.20;91.40;;;;;;6158972;23;20053;-72
2022/05/14 02:34:05;;;;;;;42.20;9.50;;;11.10;91.00;;;;;;6134705;23;20262;-73
2022/05/14 02:36:31;;;;;;;42.22;10.18;;;11.10;91.40;;;;;;6159239;23;20279;-72
2022/05/14 02:38:57;;;;;;;49.97;9.73;;;10.90;91.40;;;;;;6133958;23;20059;-73
2022/05/14 02:41:22;;;;;;;49.58;11.23;;;10.80;91.30;;;;;;6134825;23;20019;-72
2022/05/14 02:43:48;;;;;;;44.03;9.63;;;10.80;91.40;;;;;;6134682;23;20072;-72
2022/05/14 02:46:14;;;;;;;51.65;10.32;;;10.80;91.40;;;;;;6135205;23;20059;-72
2022/05/14 02:48:40;;;;;;;52.63;10.60;;;10.70;91.50;;;;;;6136355;23;20020;-73
2022/05/14 02:51:05;;;;;;;55.78;10.50;;;10.70;91.30;;;;;;6135996;23;20024;-73
2022/05/14 02:53:32;;;;;;;45.30;10.57;;;10.70;91.60;;;;;;6160874;23;20080;-74
2022/05/14 02:55:58;;;;;;;54.78;10.30;;;10.70;91.50;;;;;;6136455;23;20024;-73
2022/05/14 03:01:12;;;;;;;57.22;10.02;;;10.70;91.90;;;;;;6160764;23;20029;-72
2022/05/14 03:03:38;;;;;;;54.35;10.25;;;10.70;91.70;;;;;;6160826;23;20087;-73
2022/05/14 03:06:03;;;;;;;46.47;10.23;;;10.70;91.70;;;;;;6136296;23;20100;-73
2022/05/14 03:08:29;;;;;;;42.65;9.70;;;10.70;91.80;;;;;;6135944;23;20017;-74
2022/05/14 03:10:55;;;;;;;48.27;9.97;;;10.70;91.60;;;;;;6136342;23;20009;-74
2022/05/14 03:13:21;;;;;;;45.42;9.63;;;10.70;92.00;;;;;;6160801;23;20072;-74
2022/05/14 03:15:46;;;;;;;51.70;10.13;;;10.60;91.70;;;;;;6160742;23;20017;-73
2022/05/14 03:18:12;;;;;;;43.95;9.48;;;10.60;91.80;;;;;;6160425;23;20013;-72
2022/05/14 03:20:38;;;;;;;50.03;9.50;;;10.60;91.70;;;;;;6160458;23;20017;-73
2022/05/14 03:23:03;;;;;;;60.53;11.63;;;10.60;91.70;;;;;;6160647;23;20245;-73
2022/05/14 03:25:29;;;;;;;55.42;11.52;;;10.60;92.00;;;;;;6135650;23;20252;-73
2022/05/14 03:27:55;;;;;;;46.15;11.93;;;10.70;91.80;;;;;;6135800;23;20013;-73
2022/05/14 03:30:21;;;;;;;45.53;10.70;;;10.60;92.00;;;;;;6136012;23;20024;-75
2022/05/14 03:32:46;;;;;;;44.70;10.70;;;10.60;91.70;;;;;;6160426;23;20248;-74
2022/05/14 03:35:12;;;;;;;50.85;10.85;;;10.60;92.20;;;;;;6160951;23;20021;-74
2022/05/14 03:37:38;;;;;;;66.33;11.63;;;10.60;92.40;;;;;;6136094;23;20337;-74
2022/05/14 03:40:05;;;;;;;48.67;11.32;;;10.90;92.60;;;;;;6135779;23;20248;-73
2022/05/14 03:42:31;;;;;;;48.10;11.45;;;10.60;92.30;;;;;;6135843;23;20065;-73
2022/05/14 03:44:57;;;;;;;;;;;10.60;92.00;;;;;;6160900;23;20020;-73
2022/05/14 03:47:23;;;;;;;46.08;10.23;;;10.60;92.50;;;;;;6160086;23;20302;-73
2022/05/14 03:49:49;;;;;;;43.03;9.50;;;10.60;92.00;;;;;;6160502;23;20459;-73
2022/05/14 03:52:15;;;;;;;44.67;9.15;;;10.50;91.90;;;;;;6160528;23;20017;-74
2022/05/14 03:54:43;;;;;;;;;;;10.50;91.80;;;;;;6160952;23;20145;-74
2022/05/14 03:57:11;;;;;;;52.83;9.45;;;10.50;92.30;;;;;;6160330;23;19917;-73
2022/05/14 03:59:37;;;;;;;43.08;9.25;;;10.50;92.00;;;;;;6160296;23;20387;-74
2022/05/14 04:02:04;;;;;;;34.10;8.93;;;10.50;91.90;;;;;;6159828;23;20092;-74
2022/05/14 04:04:30;;;;;;;44.47;8.82;;;10.50;92.00;;;;;;6135867;23;20017;-74
2022/05/14 04:06:56;;;;;;;;;;;10.50;91.70;;;;;;6136175;23;20080;-73
2022/05/14 04:09:22;;;;;;;37.08;9.00;;;10.60;92.50;;;;;;6135658;23;20267;-73
2022/05/14 04:11:48;;;;;;;45.80;8.88;;;10.50;91.90;;;;;;6160250;23;20384;-73
2022/05/14 04:14:14;;;;;;;49.85;10.13;;;10.60;91.80;;;;;;6186461;23;20024;-75
2022/05/14 04:16:40;;;;;;;47.45;9.25;;;10.60;91.50;;;;;;6159811;23;20440;-73
2022/05/14 04:19:05;;;;;;;37.17;7.68;;;10.60;91.60;;;;;;6160255;23;20017;-73
2022/05/14 04:21:32;;;;;;;31.88;7.82;;;10.60;91.60;;;;;;6160050;23;20529;-74
2022/05/14 04:23:59;;;;;;;32.45;8.15;;;11.00;91.60;;;;;;6159631;23;20021;-74
2022/05/14 04:26:25;;;;;;;41.03;7.47;;;10.60;91.70;;;;;;6135667;23;20029;-75
2022/05/14 04:28:51;;;;;;;39.70;7.63;;;10.60;91.60;;;;;;6159781;23;20017;-75
2022/05/14 04:31:18;;;;;;;42.42;8.73;;;10.70;91.60;;;;;;6160100;23;20343;-73
2022/05/14 04:33:43;;;;;;;47.28;8.75;;;10.70;91.60;;;;;;6159757;23;20321;-73
2022/05/14 04:36:10;;;;;;;36.67;8.70;;;10.80;91.50;;;;;;6160086;23;20132;-74
2022/05/14 04:38:35;;;;;;;38.47;8.75;;;10.80;91.40;;;;;;6135523;23;20021;-73
2022/05/14 04:41:01;;;;;;;41.35;8.00;;;10.90;91.40;;;;;;6135252;23;20352;-75
2022/05/14 04:43:27;;;;;;;42.75;7.72;;;10.90;91.50;;;;;;6135230;23;20428;-74
2022/05/14 04:45:53;;;;;;;28.98;7.70;;;11.00;91.30;;;;;;6135282;23;20017;-74
2022/05/14 04:48:19;;;;;;;33.95;7.93;;;11.10;91.30;;;;;;6159815;23;20013;-75
2022/05/14 04:50:46;;;;;;;;;;;11.10;91.20;;;;;;6160431;23;20344;-75
2022/05/14 04:53:12;;;;;;;42.30;7.75;;;11.20;91.30;;;;;;6159432;23;20445;-73
2022/05/14 04:55:37;;;;;;;37.08;7.90;;;11.30;91.10;;;;;;6159537;23;20096;-75
2022/05/14 04:58:06;;;;;;;41.13;7.85;;;11.40;91.10;;;;;;6159538;23;20332;-74
2022/05/14 05:00:32;;;;;;;33.58;7.30;;;11.50;91.00;;;;;;6159401;23;20017;-75
2022/05/14 05:05:41;;;;;;;32.10;7.63;;;11.60;90.70;;;;;;6159810;23;20615;-74
2022/05/14 05:08:07;;;;;;;32.03;9.43;;;11.80;90.50;;;;;;6135387;23;20020;-73
2022/05/14 05:10:33;;;;;;;35.85;8.35;;;11.80;90.30;;;;;;6159344;23;20013;-74
2022/05/14 05:12:59;;;;;;;32.53;8.75;;;11.80;90.20;;;;;;6159504;23;20063;-74
2022/05/14 05:15:25;;;;;;;47.53;8.80;;;11.90;90.20;;;;;;6159541;23;20459;-73
2022/05/14 05:17:51;;;;;;;26.33;7.47;;;11.90;90.10;;;;;;6159742;23;20028;-74
2022/05/14 05:20:17;;;;;;;36.05;8.00;;;12.00;90.10;;;;;;6159368;23;20009;-75
2022/05/14 05:22:42;;;;;;;34.70;7.60;;;12.20;90.00;;;;;;6134627;23;20087;-72
2022/05/14 05:25:09;;;;;;;31.00;6.70;;;12.30;89.70;;;;;;6134799;23;20471;-75
2022/05/14 05:27:35;;;;;;;30.17;7.13;;;12.40;89.50;;;;;;6159202;23;20013;-75
2022/05/14 05:30:03;;;;;;;30.67;7.47;;;12.50;89.20;;;;;;6134722;23;20017;-74
2022/05/14 05:32:28;;;;;;;36.13;7.93;;;12.70;90.00;;;;;;6134526;23;20020;-75
2022/05/14 05:34:54;;;;;;;30.87;7.73;;;12.80;88.20;;;;;;6159215;23;20009;-74
2022/05/14 05:37:20;;;;;;;29.73;7.23;;;12.80;87.80;;;;;;6135327;23;20253;-73
2022/05/14 05:39:45;;;;;;;24.90;6.93;;;12.80;87.90;;;;;;6159729;23;20013;-74
2022/05/14 05:42:12;;;;;;;20.70;6.90;;;12.90;88.00;;;;;;6134963;23;20021;-75
2022/05/14 05:44:41;;;;;;;38.03;6.95;;;13.10;87.70;;;;;;6135046;23;20076;-74
2022/05/14 05:47:07;;;;;;;30.73;6.88;;;13.30;87.80;;;;;;6159067;23;20063;-74
2022/05/14 05:49:34;;;;;;;22.60;6.00;;;13.50;87.20;;;;;;6159458;23;20025;-73
2022/05/14 05:52:00;;;;;;;26.95;7.22;;;13.80;86.80;;;;;;6135072;23;20028;-73
2022/05/14 05:57:10;;;;;;;27.95;5.88;;;14.20;84.00;;;;;;6159489;23;20056;-74
2022/05/14 05:59:36;;;;;;;29.67;7.78;;;14.40;84.30;;;;;;6185826;23;20068;-75
2022/05/14 06:02:02;;;;;;;37.70;6.55;;;14.60;83.60;;;;;;6134308;23;20460;-73
2022/05/14 06:04:28;;;;;;;28.58;6.68;;;14.80;83.40;;;;;;6134330;23;20413;-74
2022/05/14 06:06:54;;;;;;;22.27;5.47;;;15.00;82.60;;;;;;6159119;23;20020;-75
2022/05/14 06:09:22;;;;;;;33.42;5.57;;;15.10;81.50;;;;;;6159233;23;20017;-75
2022/05/14 06:11:47;;;;;;;34.00;5.35;;;15.20;80.60;;;;;;6159383;23;20024;-75
2022/05/14 06:14:14;;;;;;;31.88;5.38;;;15.40;80.40;;;;;;6134768;23;20021;-74
2022/05/14 06:16:40;;;;;;;27.52;5.50;;;15.60;80.00;;;;;;6159441;23;20318;-73
2022/05/14 06:19:07;;;;;;;22.17;5.40;;;15.70;78.90;;;;;;6159255;23;20021;-74
2022/05/14 06:21:33;;;;;;;;;;;15.80;78.60;;;;;;6136961;23;20014;-74
2022/05/14 06:23:59;;;;;;;23.95;6.00;;;15.80;76.10;;;;;;6161208;23;19923;-74
2022/05/14 06:26:24;;;;;;;23.08;5.35;;;16.00;76.40;;;;;;6161344;23;20013;-74
2022/05/14 06:28:50;;;;;;;28.20;5.47;;;16.10;76.30;;;;;;6136387;23;20024;-74
2022/05/14 06:31:17;;;;;;;25.35;5.00;;;16.20;76.30;;;;;;6161131;23;20164;-74
2022/05/14 06:33:45;;;;;;;25.13;5.68;;;16.20;75.00;;;;;;6136406;23;20017;-75
2022/05/14 06:36:11;;;;;;;17.60;4.95;;;16.30;75.50;;;;;;6136045;23;20025;-74
2022/05/14 06:38:37;;;;;;;25.05;5.38;;;16.30;75.30;;;;;;6161034;23;20092;-74
2022/05/14 06:41:07;;;;;;;;;;;16.40;73.90;;;;;;6160651;23;20017;-74
2022/05/14 06:43:32;;;;;;;24.33;5.15;;;16.50;72.60;;;;;;6160437;23;19916;-73
2022/05/14 06:45:58;;;;;;;24.92;4.65;;;16.60;73.90;;;;;;6135995;23;20052;-74
2022/05/14 06:48:24;;;;;;;31.40;5.97;;;16.80;72.10;;;;;;6160417;23;20009;-73
2022/05/14 06:50:50;;;;;;;22.45;4.90;;;16.90;70.90;;;;;;6136076;23;20399;-73
2022/05/14 06:53:18;;;;;;;25.45;4.68;;;17.10;71.50;;;;;;6135908;23;20465;-75
2022/05/14 06:55:47;;;;;;;23.30;4.57;;;17.30;71.30;;;;;;6187082;23;20021;-73
2022/05/14 06:58:17;;;;;;;26.05;4.97;;;17.40;68.90;;;;;;6160810;23;20100;-73
2022/05/14 07:00:44;;;;;;;34.13;6.57;;;17.60;69.60;;;;;;6186900;23;20071;-76
2022/05/14 07:08:39;;;;;;;23.48;5.22;;;17.80;68.50;;;;;;6161267;23;20104;-70
2022/05/14 07:11:05;;;;;;;22.38;4.82;;;17.90;67.70;;;;;;6187092;23;20053;-71
2022/05/14 07:13:30;;;;;;;24.67;5.30;;;18.00;66.80;;;;;;6160873;23;20155;-69
2022/05/14 07:15:56;;;;;;;27.08;4.95;;;18.00;66.50;;;;;;6160346;23;20136;-69
2022/05/14 07:18:22;;;;;;;27.88;5.43;;;18.20;66.70;;;;;;6136170;23;20024;-69
2022/05/14 07:20:48;;;;;;;27.83;4.50;;;18.20;63.40;;;;;;6136159;23;20013;-69
2022/05/14 07:23:13;;;;;;;28.33;6.65;;;18.40;65.40;;;;;;6160441;23;20025;-69
2022/05/14 07:25:42;;;;;;;23.73;5.50;;;18.50;63.30;;;;;;6135860;23;20048;-70
2022/05/14 07:28:08;;;;;;;25.00;5.35;;;18.70;64.80;;;;;;6160091;23;20013;-71
2022/05/14 07:30:37;;;;;;;;;;;18.80;63.80;;;;;;6161291;23;20507;-72
2022/05/14 07:33:02;;;;;;;22.90;4.95;;;18.80;60.80;;;;;;6135454;23;19916;-69
2022/05/14 07:35:29;;;;;;;30.40;5.75;;;18.90;63.00;;;;;;6160409;23;20020;-69
2022/05/14 07:37:58;;;;;;;25.20;4.75;;;19.00;61.70;;;;;;6160524;23;20032;-68
2022/05/14 07:40:29;;;;;;;29.23;5.05;;;19.10;61.60;;;;;;6136633;23;20462;-69
2022/05/14 07:43:01;;;;;;;22.50;4.15;;;19.20;60.40;;;;;;6135833;23;20100;-70
2022/05/14 07:45:43;;;;;;;23.10;5.32;;;19.20;60.00;;;;;;6160536;23;20013;-73
2022/05/14 07:48:22;;;;;;;25.42;5.22;;;19.40;60.30;;;;;;6135854;23;20017;-77
2022/05/14 07:50:48;;;;;;;19.52;4.28;;;19.50;60.50;;;;;;6160799;23;20019;-72
2022/05/14 07:53:17;;;;;;;24.55;5.10;;;19.60;60.40;;;;;;6135977;23;20016;-76
2022/05/14 07:55:43;;;;;;;22.95;5.68;;;19.60;59.40;;;;;;6135663;23;20051;-74
2022/05/14 07:58:09;;;;;;;;;;;19.70;57.10;;;;;;6160814;23;20028;-76
2022/05/14 08:00:35;;;;;;;27.65;5.22;;;19.60;57.60;;;;;;6159832;23;19916;-74
2022/05/14 08:03:02;;;;;;;25.60;5.50;;;19.80;59.90;;;;;;6159932;23;20383;-73
2022/05/14 08:05:28;;;;;;;24.45;4.97;;;19.90;59.30;;;;;;6158965;23;20399;-74
2022/05/14 08:07:54;;;;;;;25.85;4.97;;;19.80;57.80;;;;;;6159231;23;20013;-73
2022/05/14 08:10:25;;;;;;;23.45;5.40;;;19.80;58.70;;;;;;6134348;23;20356;-79
2022/05/14 08:12:54;;;;;;;24.08;5.88;;;19.80;58.40;;;;;;6135341;23;20017;-76
2022/05/14 08:15:21;;;;;;;23.77;5.95;;;19.90;58.60;;;;;;6186558;23;20048;-77
2022/05/14 08:17:47;;;;;;;25.23;5.25;;;20.00;58.50;;;;;;6186564;23;20025;-74
2022/05/14 08:20:14;;;;;;;24.48;5.85;;;20.10;57.00;;;;;;6160307;23;20013;-75
2022/05/14 08:25:26;;;;;;;30.27;6.50;;;20.30;57.00;;;;;;6159965;23;20140;-74
2022/05/14 08:27:52;;;;;;;33.17;5.53;;;20.30;57.80;;;;;;6137826;23;20016;-76
2022/05/14 08:30:30;;;;;;;24.08;5.80;;;20.40;57.50;;;;;;6137963;23;20021;-77
2022/05/14 08:32:57;;;;;;;25.92;5.43;;;20.40;57.20;;;;;;6135846;23;20396;-75
2022/05/14 08:35:23;;;;;;;23.27;5.72;;;20.50;58.20;;;;;;6160857;23;20040;-72
2022/05/14 08:37:57;;;;;;;29.27;6.30;;;20.70;57.60;;;;;;6160132;23;20020;-74
2022/05/14 08:40:55;;;;;;;25.92;5.38;;;20.70;56.90;;;;;;6134371;23;20009;-79
2022/05/14 08:44:56;;;;;;;;;;;;;;;;;;;;;
2022/05/14 08:48:33;;;;;;;;;;;;;;;;;;;;;
2022/05/14 08:55:55;;;;;;;21.38;5.47;;;20.70;56.90;;;;;;6026978;23;20020;-80
2022/05/14 09:14:34;;;;;;;26.05;5.30;;;21.00;56.10;;;;;;5835809;24;20057;-80
2022/05/14 09:22:41;;;;;;;34.40;5.88;;;21.10;54.50;;;;;;5816341;24;20030;-79
2022/05/14 09:44:36;;;;;;;;;;;;;;;;;;;;;
2022/05/14 09:51:50;;;;;;;;;;;;;;;;;;;;;
2022/05/14 10:14:06;;;;;;;26.17;5.38;;;21.70;52.70;;;;;;5134857;22;25545378;-81
2022/05/14 10:21:22;;;;;;;25.02;5.60;;;21.50;52.10;;;;;;6073253;23;20041;-78
2022/05/14 10:36:26;;;;;;;26.15;5.70;;;21.50;50.50;;;;;;5938531;24;20028;-79
2022/05/14 10:50:41;;;;;;;19.30;5.28;;;21.80;50.90;;;;;;6018889;23;20063;-81
2022/05/14 11:01:41;;;;;;;27.63;6.03;;;21.80;50.40;;;;;;5992008;23;20027;-80
2022/05/14 11:05:34;;;;;;;;;;;;;;;;;;;;;
2022/05/14 11:12:30;;;;;;;24.63;5.28;;;22.10;49.80;;;;;;5957502;23;20032;-81
2022/05/14 11:19:48;;;;;;;27.05;4.88;;;22.00;49.00;;;;;;5825837;24;20508;-80
2022/05/14 11:27:39;;;;;;;;;;;;;;;;;;;;;
2022/05/14 11:31:00;;;;;;;31.85;6.75;;;22.20;49.00;;;;;;5717492;25;20088;-82
2022/05/14 11:37:30;;;;;;;32.03;6.80;;;22.10;50.20;;;;;;5844490;24;20029;-80
2022/05/14 11:40:54;;;;;;;;;;;;;;;;;;;;;
2022/05/14 11:52:04;;;;;;;;;;;;;;;;;;;;;
2022/05/14 11:55:54;;;;;;;25.35;5.57;;;22.10;50.60;;;;;;5801914;24;20136;-81
2022/05/14 12:53:49;;;;;;;28.85;6.25;;;21.80;49.50;;;;;;6168658;23;20081;-76
2022/05/14 12:56:42;;;;;;;27.13;5.53;;;21.80;49.90;;;;;;6133089;23;20409;-80
2022/05/14 12:59:51;;;;;;;29.05;6.20;;;21.50;49.20;;;;;;6133314;23;20065;-80
2022/05/14 13:07:26;;;;;;;;;;;;;;;;;;;;;
2022/05/14 13:22:23;;;;;;;23.10;5.25;;;22.60;48.40;;;;;;6113359;23;20389;-80
2022/05/14 13:32:43;;;;;;;22.60;5.20;;;22.90;47.20;;;;;;5914728;23;20017;-81
2022/05/14 13:48:29;;;;;;;;;;;;;;;;;;;;;
2022/05/14 14:03:49;;;;;;;;;;;;;;;;;;;;;
2022/05/14 14:37:25;;;;;;;;;;;;;;;;;;;;;
2022/05/14 14:40:49;;;;;;;19.92;4.95;;;24.10;43.10;;;;;;5921938;24;20099;-81
2022/05/14 14:47:56;;;;;;;24.98;5.18;;;24.40;44.20;;;;;;5917194;24;20029;-80
2022/05/14 14:55:04;;;;;;;;;;;;;;;;;;;;;
2022/05/14 14:58:54;;;;;;;;;;;;;;;;;;;;;
2022/05/14 15:10:06;;;;;;;;;;;;;;;;;;;;;
2022/05/14 15:17:31;;;;;;;;;;;;;;;;;;;;;
2022/05/14 15:20:53;;;;;;;;;;;;;;;;;;;;;
2022/05/14 15:46:52;;;;;;;;;;;;;;;;;;;;;
2022/05/14 15:50:24;;;;;;;25.38;5.65;;;26.20;39.20;;;;;;5925432;24;20536;-81
2022/05/14 16:29:01;;;;;;;23.50;5.15;;;25.50;39.20;;;;;;5790281;24;20070;-80
2022/05/14 16:32:46;;;;;;;22.88;4.95;;;24.50;40.70;;;;;;5764010;24;20538;-82
2022/05/14 16:43:18;;;;;;;21.67;4.80;;;24.50;40.70;;;;;;5779653;24;20025;-81
2022/05/14 17:13:36;;;;;;;28.73;5.07;;;20.20;49.60;;;;;;6072960;23;20447;-80
2022/05/14 17:24:45;;;;;;;;;;;;;;;;;;;;;
2022/05/14 18:03:52;;;;;;;;;;;;;;;;;;;;;
2022/05/14 18:19:18;;;;;;;29.42;6.45;;;17.30;61.20;;;;;;5905146;24;20021;-81
2022/05/14 18:26:54;;;;;;;24.08;5.53;;;17.20;62.90;;;;;;5854373;24;20040;-81
2022/05/14 20:05:37;;;;;;;35.05;8.07;;;13.40;76.40;;;;;;5871768;24;20085;-80
2022/05/14 20:13:02;;;;;;;;;;;;;;;;;;;;;
2022/05/14 20:24:37;;;;;;;37.78;7.57;;;13.20;77.60;;;;;;5798044;24;20409;-82
2022/05/14 21:00:13;;;;;;;;;;;;;;;;;;;;;
2022/05/14 21:15:39;;;;;;;32.17;7.43;;;11.90;80.20;;;;;;5894612;24;20096;-81
2022/05/14 21:26:30;;;;;;;29.95;6.75;;;11.50;83.20;;;;;;5932541;24;20567;-80
2022/05/14 21:30:14;;;;;;;25.33;6.22;;;11.50;82.80;;;;;;5845748;24;20018;-81
2022/05/14 21:45:02;;;;;;;32.65;8.13;;;11.20;83.20;;;;;;5904581;24;20029;-81
2022/05/14 21:52:05;;;;;;;41.08;8.85;;;11.10;83.60;;;;;;5926190;24;20078;-80
2022/05/14 22:07:22;;;;;;;35.83;9.45;;;10.90;87.70;;;;;;5833345;24;20031;-80
2022/05/14 22:10:58;;;;;;;;;;;;;;;;;;;;;
2022/05/14 22:14:53;;;;;;;39.47;11.00;;;10.80;86.60;;;;;;5922801;24;20054;-79
2022/05/14 22:26:27;;;;;;;42.85;10.57;;;10.70;86.90;;;;;;5952935;24;20070;-80
2022/05/14 22:33:31;;;;;;;36.08;10.85;;;10.70;88.50;;;;;;6009036;23;20027;-82
2022/05/14 22:37:08;;;;;;;40.03;12.07;;;10.70;87.50;;;;;;5925814;24;20331;-81
2022/05/14 22:44:37;;;;;;;;;;;;;;;;;;;;;
2022/05/14 23:03:04;;;;;;;44.55;13.07;;;10.40;88.00;;;;;;6008829;23;20038;-80
2022/05/14 23:10:49;;;;;;;37.78;11.50;;;10.40;89.30;;;;;;6009401;23;20023;-81
2022/05/14 23:18:20;;;;;;;;;;;;;;;;;;;;;
2022/05/14 23:28:48;;;;;;;32.35;10.88;;;10.20;89.30;;;;;;6005247;23;20021;-79
2022/05/14 23:39:35;;;;;;;;;;;;;;;;;;;;;
2022/05/14 23:46:25;;;;;;;25.35;10.02;;;10.30;88.50;;;;;;5980186;24;20021;-81
